Time;durP1;ratioP1;P1;durP2;ratioP2;P2;SDS_P1;SDS_P2;PMS_P1;PMS_P2;Temp;Humidity;BMP_temperature;BMP_pressure;BME280_temperature;BME280_humidity;BME280_pressure;Samples;Min_cycle;Max_cycle;Signal;HPM_P1;HPM_P2
2022/10/28 00:02:26;;;;;;;48.45;32.83;;;;;;;7.60;84.59;101615.56;3294832;84;22604;-72
2022/10/28 00:07:17;;;;;;;53.10;32.75;;;;;;;7.61;84.65;101614.73;3318793;83;20997;-72
2022/10/28 00:12:09;;;;;;;51.77;33.42;;;;;;;7.64;85.01;101612.28;3280070;84;21161;-72
2022/10/28 00:17:00;;;;;;;53.33;32.95;;;;;;;7.66;84.90;101616.66;3333757;83;20983;-71
2022/10/28 00:21:51;;;;;;;46.90;30.75;;;;;;;7.62;84.92;101604.87;3275024;83;21030;-72
2022/10/28 00:26:43;;;;;;;51.68;32.45;;;;;;;7.63;85.14;101602.73;3255513;84;21169;-72
2022/10/28 00:31:36;;;;;;;57.17;32.42;;;;;;;7.64;85.12;101605.81;3289183;83;21473;-72
2022/10/28 00:36:31;;;;;;;51.42;34.55;;;;;;;7.62;85.03;101600.11;3284119;84;21342;-72
2022/10/28 00:41:34;;;;;;;51.53;34.15;;;;;;;7.63;85.36;101596.27;3293833;83;21022;-71
2022/10/28 00:47:10;;;;;;;;;;;;;;;;;;;;;
2022/10/28 00:52:49;;;;;;;51.00;33.67;;;;;;;7.62;85.26;101588.46;3330428;83;21014;-73
2022/10/28 00:58:11;;;;;;;52.43;33.63;;;;;;;7.67;85.95;101583.05;3288683;83;21967;-72
2022/10/28 01:02:59;;;;;;;53.95;33.95;;;;;;;7.73;86.32;101583.32;3098505;90;21440;-72
2022/10/28 01:07:58;;;;;;;55.25;34.13;;;;;;;7.74;86.10;101576.01;3116654;89;21154;-71
2022/10/28 01:13:10;;;;;;;56.68;33.33;;;;;;;7.77;86.18;101570.09;3110249;89;20933;-72
2022/10/28 01:18:34;;;;;;;54.42;32.88;;;;;;;7.77;86.05;101572.69;3132698;89;20999;-72
2022/10/28 01:23:49;;;;;;;51.20;32.53;;;;;;;7.77;86.24;101578.73;3126236;88;20956;-72
2022/10/28 01:29:05;;;;;;;65.28;35.50;;;;;;;7.79;86.51;101571.04;3090948;89;21749;-72
2022/10/28 01:34:27;;;;;;;52.70;31.77;;;;;;;7.83;86.56;101567.75;3141534;88;20987;-72
2022/10/28 01:39:56;;;;;;;50.52;32.95;;;;;;;7.86;86.68;101564.00;3130467;88;21003;-72
2022/10/28 01:45:17;;;;;;;54.88;34.30;;;;;;;7.89;86.79;101566.73;3117335;89;20992;-72
2022/10/28 01:50:24;;;;;;;53.33;30.52;;;;;;;7.95;87.03;101556.61;3117245;89;21561;-72
2022/10/28 01:55:23;;;;;;;42.03;31.95;;;;;;;7.97;86.94;101569.63;3134488;89;21744;-72
2022/10/28 02:11:17;;;;;;;49.70;32.35;;;;;;;8.05;87.48;101555.68;3136055;87;21015;-72
2022/10/28 02:16:43;;;;;;;45.28;29.57;;;;;;;8.10;87.74;101548.59;3257741;86;21067;-73
2022/10/28 02:22:13;;;;;;;42.35;30.35;;;;;;;8.13;87.88;101547.83;3243704;84;22523;-72
2022/10/28 02:27:29;;;;;;;48.63;30.72;;;;;;;8.20;88.00;101545.95;3210115;84;21061;-72
2022/10/28 02:32:24;;;;;;;46.77;30.90;;;;;;;8.20;88.00;101545.95;3273359;84;21523;-72
2022/10/28 02:37:23;;;;;;;45.60;30.48;;;;;;;8.22;88.11;101543.01;3267835;85;20974;-72
2022/10/28 02:42:28;;;;;;;43.95;29.72;;;;;;;8.24;88.11;101537.47;3260666;85;21525;-72
2022/10/28 02:47:24;;;;;;;37.35;29.70;;;;;;;8.25;88.14;101528.02;3311782;84;22123;-72
2022/10/28 02:52:19;;;;;;;45.17;29.80;;;;;;;8.25;88.21;101514.64;3319549;83;21462;-72
2022/10/28 02:57:15;;;;;;;38.58;28.92;;;;;;;8.28;88.29;101513.86;3308300;85;21000;-72
2022/10/28 03:02:07;;;;;;;40.78;26.97;;;;;;;8.30;88.46;101515.70;3320817;83;20975;-72
2022/10/28 03:06:58;;;;;;;36.13;26.17;;;;;;;8.30;88.70;101496.27;3298201;83;21480;-72
2022/10/28 03:11:49;;;;;;;41.73;25.23;;;;;;;8.30;88.70;101496.27;3325094;84;21050;-73
2022/10/28 03:16:40;;;;;;;45.28;25.97;;;;;;;8.37;88.72;101506.44;3292643;84;21150;-72
2022/10/28 03:21:31;;;;;;;45.65;26.40;;;;;;;8.37;88.79;101503.45;3271739;84;21046;-72
2022/10/28 03:26:22;;;;;;;35.90;25.30;;;;;;;8.40;89.01;101507.44;3318071;84;20975;-72
2022/10/28 03:31:14;;;;;;;37.05;27.37;;;;;;;8.41;88.91;101508.34;3284224;84;21515;-72
2022/10/28 03:36:06;;;;;;;30.97;22.77;;;;;;;8.42;88.89;101510.52;3273352;84;21553;-72
2022/10/28 03:40:58;;;;;;;39.27;24.52;;;;;;;8.42;88.87;101511.81;3295598;83;20950;-72
2022/10/28 03:45:49;;;;;;;28.57;23.55;;;;;;;8.42;88.83;101510.52;3294612;84;20943;-72
2022/10/28 03:50:40;;;;;;;29.55;23.35;;;;;;;8.39;88.89;101500.51;3297350;84;20959;-71
2022/10/28 03:55:32;;;;;;;29.98;22.82;;;;;;;8.38;88.75;101503.91;3288311;84;21015;-72
2022/10/28 04:00:23;;;;;;;28.25;24.15;;;;;;;8.34;88.76;101500.73;3272968;84;21148;-72
2022/10/28 04:05:14;;;;;;;24.98;21.93;;;;;;;8.34;88.76;101500.73;3296555;84;21001;-72
2022/10/28 04:10:06;;;;;;;42.83;20.17;;;;;;;8.32;88.87;101494.63;3291543;83;20963;-72
2022/10/28 04:14:57;;;;;;;27.50;21.80;;;;;;;8.31;89.10;101490.25;3290784;84;21057;-72
2022/10/28 04:19:48;;;;;;;31.25;22.25;;;;;;;8.32;89.19;101485.55;3260680;84;20975;-72
2022/10/28 04:24:40;;;;;;;34.50;24.12;;;;;;;8.35;89.26;101480.88;3312717;84;22156;-72
2022/10/28 04:29:33;;;;;;;40.08;21.77;;;;;;;8.36;89.29;101482.24;3291042;83;21005;-72
2022/10/28 04:34:25;;;;;;;29.63;23.47;;;;;;;8.36;89.21;101487.42;3248952;84;21116;-72
2022/10/28 04:39:17;;;;;;;30.90;22.60;;;;;;;8.35;89.35;101474.02;3267542;84;21116;-71
2022/10/28 04:44:08;;;;;;;29.20;21.85;;;;;;;8.36;89.30;101479.66;3297229;84;20972;-72
2022/10/28 04:48:59;;;;;;;30.88;22.80;;;;;;;8.35;89.17;101488.27;3293894;84;21141;-72
2022/10/28 04:53:51;;;;;;;31.60;23.10;;;;;;;8.35;89.28;101489.56;3225138;84;20979;-72
2022/10/28 04:58:42;;;;;;;31.40;22.35;;;;;;;8.40;89.51;101493.19;3267369;84;20954;-71
2022/10/28 05:03:35;;;;;;;31.30;23.20;;;;;;;8.40;89.51;101493.19;3286897;84;21104;-72
2022/10/28 05:08:26;;;;;;;28.02;21.75;;;;;;;8.43;89.74;101498.95;3276594;85;21265;-73
2022/10/28 05:13:18;;;;;;;32.33;22.93;;;;;;;8.44;89.68;101489.07;3302802;84;23278;-73
2022/10/28 05:18:10;;;;;;;31.37;23.65;;;;;;;8.43;89.67;101476.92;3264732;84;21454;-74
2022/10/28 05:23:01;;;;;;;31.02;22.02;;;;;;;8.45;89.61;101473.09;3295436;83;20993;-73
2022/10/28 05:27:52;;;;;;;33.00;22.48;;;;;;;8.42;89.55;101475.14;3277380;84;21062;-72
2022/10/28 05:32:44;;;;;;;46.02;21.80;;;;;;;8.42;89.61;101472.94;3310918;84;21040;-73
2022/10/28 05:37:36;;;;;;;30.92;21.55;;;;;;;8.40;89.69;101470.28;3248365;84;21009;-73
2022/10/28 05:42:27;;;;;;;39.48;21.48;;;;;;;8.43;89.94;101454.02;3221640;84;20967;-72
2022/10/28 05:47:19;;;;;;;31.95;23.25;;;;;;;8.43;89.94;101454.02;3273528;83;21452;-73
2022/10/28 05:52:10;;;;;;;38.13;22.75;;;;;;;8.46;89.81;101456.70;3306971;84;20981;-73
2022/10/28 05:57:02;;;;;;;30.88;24.70;;;;;;;8.50;89.83;101458.61;3279052;83;21044;-73
2022/10/28 06:01:53;;;;;;;31.52;24.92;;;;;;;8.55;89.79;101458.37;3269073;84;22843;-73
2022/10/28 06:06:44;;;;;;;28.77;23.35;;;;;;;8.61;89.76;101452.10;3307597;84;21060;-73
2022/10/28 06:11:36;;;;;;;30.35;24.40;;;;;;;8.63;89.63;101449.56;3289791;84;20934;-73
2022/10/28 06:16:27;;;;;;;30.52;23.20;;;;;;;8.76;89.67;101455.27;3305616;84;21062;-73
2022/10/28 06:21:18;;;;;;;30.70;24.63;;;;;;;8.82;89.54;101448.50;3276270;84;21009;-73
2022/10/28 06:26:09;;;;;;;37.95;25.43;;;;;;;8.90;89.44;101439.30;3251762;83;21928;-73
2022/10/28 06:31:03;;;;;;;31.40;25.80;;;;;;;8.98;89.55;101450.84;3266623;83;21079;-73
2022/10/28 06:35:59;;;;;;;34.33;26.25;;;;;;;9.11;89.52;101438.75;3318058;83;21112;-73
2022/10/28 06:40:50;;;;;;;34.27;23.98;;;;;;;9.11;89.52;101438.75;3277026;84;21155;-73
2022/10/28 06:45:44;;;;;;;29.32;23.22;;;;;;;9.23;89.42;101449.07;3275531;84;20992;-74
2022/10/28 06:50:37;;;;;;;32.90;24.55;;;;;;;9.34;89.56;101439.95;3257671;83;21535;-73
2022/10/28 06:55:28;;;;;;;38.85;24.15;;;;;;;9.34;89.56;101439.95;3288610;84;21092;-72
2022/10/28 07:00:20;;;;;;;38.25;26.25;;;;;;;9.39;89.47;101441.00;3254087;84;20983;-73
2022/10/28 07:05:11;;;;;;;38.28;26.42;;;;;;;9.51;89.37;101435.31;3295197;83;20973;-73
2022/10/28 07:10:05;;;;;;;31.97;26.33;;;;;;;9.72;89.22;101440.33;3264631;83;21418;-72
2022/10/28 07:14:56;;;;;;;34.25;27.87;;;;;;;9.88;89.11;101442.56;3292057;83;21587;-72
2022/10/28 07:19:47;;;;;;;35.52;27.45;;;;;;;10.12;88.90;101444.15;3272100;83;21536;-73
2022/10/28 07:24:38;;;;;;;31.48;27.87;;;;;;;10.28;88.73;101450.30;3259174;84;21219;-73
2022/10/28 07:30:12;;;;;;;;;;;;;;;;;;;;;
2022/10/28 07:34:35;;;;;;;37.25;31.95;;;;;;;10.71;87.92;101445.89;3216336;85;20988;-74
2022/10/28 07:39:31;;;;;;;38.17;33.38;;;;;;;10.81;87.86;101460.50;3216689;86;22816;-74
2022/10/28 07:44:26;;;;;;;37.53;32.23;;;;;;;10.93;87.73;101456.07;3162589;86;21008;-73
2022/10/28 07:49:23;;;;;;;34.20;30.17;;;;;;;11.23;87.48;101439.48;3173469;87;21002;-75
2022/10/28 07:54:15;;;;;;;35.60;30.37;;;;;;;11.63;86.71;101430.08;3220029;86;21527;-75
2022/10/28 07:59:06;;;;;;;32.15;28.32;;;;;;;11.99;86.26;101426.60;3195119;86;21580;-74
2022/10/28 08:03:58;;;;;;;33.92;30.32;;;;;;;12.32;85.82;101417.74;3218544;84;22760;-74
2022/10/28 08:08:55;;;;;;;31.90;28.45;;;;;;;12.71;85.53;101409.83;3316603;83;21508;-74
2022/10/28 08:13:47;;;;;;;;;;;;;;;12.93;84.83;101403.71;3349923;83;21006;-75
2022/10/28 08:18:39;;;;;;;33.48;29.45;;;;;;;12.77;85.05;101406.49;3307078;84;20230;-74
2022/10/28 08:23:31;;;;;;;33.28;29.67;;;;;;;12.72;85.20;101413.34;3303122;83;21002;-74
2022/10/28 08:28:23;;;;;;;31.33;27.90;;;;;;;12.62;85.39;101412.70;3339142;83;21489;-73
2022/10/28 08:33:15;;;;;;;33.10;28.90;;;;;;;12.64;85.63;101416.22;3295803;84;21002;-74
2022/10/28 08:38:07;;;;;;;34.10;30.43;;;;;;;12.66;85.68;101405.38;3321566;83;21607;-74
2022/10/28 08:43:04;;;;;;;30.43;27.15;;;;;;;12.76;85.50;101407.33;3308529;84;21046;-74
2022/10/28 08:48:17;;;;;;;;;;;;;;;13.39;84.40;101395.84;3308978;84;21073;-75
2022/10/28 08:53:18;;;;;;;29.70;26.65;;;;;;;13.54;84.51;101390.44;3318587;83;20995;-74
2022/10/28 08:58:24;;;;;;;28.87;26.07;;;;;;;14.02;83.98;101391.14;3313429;83;20967;-75
2022/10/28 09:03:23;;;;;;;30.20;27.00;;;;;;;13.79;84.09;101392.12;3320921;83;20944;-75
2022/10/28 09:08:24;;;;;;;29.50;26.30;;;;;;;13.84;83.94;101392.16;3318056;83;21030;-75
2022/10/28 09:13:24;;;;;;;29.18;26.27;;;;;;;14.03;83.96;101394.18;3288022;83;21045;-76
2022/10/28 09:18:39;;;;;;;28.30;25.30;;;;;;;14.40;83.82;101385.50;3295375;83;22695;-73
2022/10/28 09:23:56;;;;;;;27.52;24.65;;;;;;;15.06;82.43;101380.13;3351692;83;21576;-76
2022/10/28 09:29:07;;;;;;;25.37;22.98;;;;;;;15.14;82.50;101374.50;3286628;84;21757;-73
2022/10/28 09:34:44;;;;;;;24.92;22.27;;;;;;;16.37;80.11;101381.84;3296485;84;21010;-74
2022/10/28 09:39:58;;;;;;;23.85;21.42;;;;;;;16.77;79.40;101376.69;3290867;84;21086;-75
2022/10/28 09:44:57;;;;;;;25.40;21.48;;;;;;;16.47;79.64;101377.52;3239046;84;21107;-75
2022/10/28 09:49:53;;;;;;;24.80;22.37;;;;;;;16.61;79.47;101378.85;3285709;84;21046;-75
2022/10/28 09:54:51;;;;;;;25.45;22.85;;;;;;;16.32;79.79;101379.63;3267592;85;21112;-75
2022/10/28 09:59:43;;;;;;;48.00;27.32;;;;;;;17.40;78.17;101372.39;3246630;85;21778;-74
2022/10/28 10:04:34;;;;;;;23.25;20.85;;;;;;;17.67;78.13;101363.16;3291842;85;21398;-75
2022/10/28 10:09:32;;;;;;;24.65;19.42;;;;;;;17.77;77.47;101361.38;3273894;83;21034;-74
2022/10/28 10:14:39;;;;;;;20.80;18.70;;;;;;;17.55;76.77;101353.11;3247078;84;21075;-75
2022/10/28 10:20:11;;;;;;;24.52;19.07;;;;;;;17.25;76.69;101357.52;3273414;84;22188;-75
2022/10/28 10:25:59;;;;;;;20.25;18.35;;;;;;;17.15;76.96;101349.64;3294889;83;21146;-74
2022/10/28 10:30:57;;;;;;;20.75;17.80;;;;;;;17.49;77.03;101346.98;3239209;84;21026;-75
2022/10/28 10:36:06;;;;;;;19.25;17.35;;;;;;;18.52;74.06;101343.11;3228186;87;21791;-75
2022/10/28 10:40:57;;;;;;;17.48;15.72;;;;;;;18.52;74.06;101343.11;3192202;86;21282;-73
2022/10/28 10:46:06;;;;;;;16.73;14.98;;;;;;;19.01;73.79;101330.06;3207075;86;21034;-75
2022/10/28 10:51:04;;;;;;;18.07;14.78;;;;;;;19.48;72.99;101327.91;3174960;87;21015;-74
2022/10/28 10:56:09;;;;;;;15.75;14.13;;;;;;;20.42;71.04;101326.33;3201608;86;21017;-74
2022/10/28 11:01:04;;;;;;;14.53;13.13;;;;;;;20.55;71.03;101317.34;3237978;85;21531;-75
2022/10/28 11:05:58;;;;;;;13.88;12.47;;;;;;;20.60;70.07;101312.43;3270499;84;21013;-74
2022/10/28 11:11:16;;;;;;;15.65;13.88;;;;;;;21.29;69.79;101305.58;3280527;84;21001;-75
2022/10/28 11:16:21;;;;;;;15.65;12.90;;;;;;;21.83;68.55;101303.70;3309242;84;21088;-74
2022/10/28 11:21:30;;;;;;;14.33;13.00;;;;;;;22.29;67.05;101286.86;3308231;83;20986;-75
2022/10/28 11:26:51;;;;;;;;;;;;;;;;;;;;;
2022/10/28 11:32:23;;;;;;;15.63;11.83;;;;;;;23.90;64.15;101271.22;3299640;83;21002;-76
2022/10/28 11:37:09;;;;;;;13.15;11.78;;;;;;;23.82;63.82;101265.72;3234081;84;21007;-78
2022/10/28 11:42:21;;;;;;;17.37;13.10;;;;;;;23.54;63.80;101260.72;3313768;84;20971;-77
2022/10/28 11:47:37;;;;;;;13.18;11.78;;;;;;;22.31;65.24;101246.63;3308559;83;21034;-78
2022/10/28 11:53:05;;;;;;;13.20;11.48;;;;;;;22.11;65.97;101249.72;3291187;84;21522;-74
2022/10/28 11:58:16;;;;;;;16.50;11.38;;;;;;;21.41;66.04;101252.02;3333756;84;21581;-75
2022/10/28 12:04:04;;;;;;;10.90;9.48;;;;;;;20.72;67.48;101258.97;3304408;83;20993;-75
2022/10/28 12:09:24;;;;;;;14.25;10.68;;;;;;;20.43;67.92;101251.49;3286431;83;21015;-75
2022/10/28 12:14:32;;;;;;;12.80;10.35;;;;;;;20.00;68.52;101249.48;3226351;86;21010;-75
2022/10/28 12:25:33;;;;;;;11.20;9.75;;;;;;;19.49;69.29;101250.06;2937727;95;21089;-74
2022/10/28 12:30:51;;;;;;;13.20;10.85;;;;;;;19.35;69.99;101243.66;2890280;97;21052;-77
2022/10/28 12:42:24;;;;;;;13.90;10.40;;;;;;;19.30;70.37;101236.66;3006515;93;21145;-75
2022/10/28 12:47:38;;;;;;;12.98;9.78;;;;;;;19.38;70.38;101230.41;2928074;94;21700;-74
2022/10/28 12:58:25;;;;;;;14.28;10.58;;;;;;;19.29;70.31;101223.93;2949779;93;21237;-76
2022/10/28 13:03:17;;;;;;;12.53;9.98;;;;;;;19.19;70.38;101220.53;2842199;97;21486;-75
2022/10/28 13:08:38;;;;;;;13.70;9.25;;;;;;;19.01;70.66;101212.38;2818509;99;22235;-73
2022/10/28 13:14:22;;;;;;;;;;;;;;;;;;;;;
2022/10/28 13:25:16;;;;;;;10.10;9.10;;;;;;;18.73;70.80;101204.28;3103856;89;21156;-75
2022/10/28 13:30:40;;;;;;;11.35;8.88;;;;;;;18.56;71.14;101209.22;3029133;89;21078;-75
2022/10/28 13:35:45;;;;;;;8.97;8.07;;;;;;;18.38;71.03;101198.84;3062931;89;21520;-75
2022/10/28 13:41:14;;;;;;;11.83;9.63;;;;;;;18.27;71.56;101194.98;3185500;87;21362;-75
2022/10/28 13:46:06;;;;;;;9.85;8.63;;;;;;;18.25;71.48;101194.98;3179069;86;21721;-75
2022/10/28 13:51:14;;;;;;;10.68;8.75;;;;;;;18.09;71.58;101199.92;3143763;88;21037;-74
2022/10/28 13:56:32;;;;;;;8.70;7.53;;;;;;;17.94;71.90;101198.69;3170159;87;21033;-74
2022/10/28 14:01:49;;;;;;;9.70;7.92;;;;;;;17.69;72.11;101207.56;3166560;87;21603;-74
2022/10/28 14:06:37;;;;;;;10.32;7.80;;;;;;;17.51;72.39;101230.00;3244545;87;22015;-75
2022/10/28 14:11:31;;;;;;;12.13;9.13;;;;;;;17.35;72.95;101235.74;3194898;87;21548;-74
2022/10/28 14:16:34;;;;;;;13.25;8.03;;;;;;;17.18;73.74;101254.16;3189349;87;21066;-75
2022/10/28 14:21:55;;;;;;;10.25;8.83;;;;;;;16.98;74.29;101276.52;3230188;86;21622;-74
2022/10/28 14:33:07;;;;;;;;;;;;;;;;;;;;;
2022/10/28 14:38:29;;;;;;;14.35;7.95;;;;;;;16.47;75.81;101260.73;2991738;92;21123;-74
2022/10/28 14:43:32;;;;;;;11.65;8.30;;;;;;;16.34;76.45;101248.44;2994041;91;21171;-75
2022/10/28 14:48:54;;;;;;;12.30;8.35;;;;;;;16.20;76.72;101252.34;2966145;93;21626;-75
2022/10/28 14:54:06;;;;;;;15.53;9.48;;;;;;;16.09;77.25;101248.38;2971235;93;21164;-75
2022/10/28 14:59:25;;;;;;;15.08;9.08;;;;;;;15.98;77.73;101241.80;3022303;91;21244;-75
2022/10/28 15:04:29;;;;;;;14.67;7.87;;;;;;;15.85;78.39;101224.28;3049374;91;21304;-76
2022/10/28 15:09:28;;;;;;;16.35;9.58;;;;;;;15.73;78.95;101201.48;3121040;87;21052;-76
2022/10/28 15:14:32;;;;;;;11.08;8.38;;;;;;;15.62;79.43;101206.68;3202198;87;21053;-75
2022/10/28 15:19:32;;;;;;;15.85;10.20;;;;;;;15.49;79.92;101187.86;3191809;87;21025;-75
2022/10/28 15:24:39;;;;;;;11.70;9.63;;;;;;;15.38;80.34;101200.02;3217684;84;21493;-75
2022/10/28 15:29:26;;;;;;;15.00;10.35;;;;;;;15.29;80.74;101191.70;3283787;84;21009;-75
2022/10/28 15:34:23;;;;;;;11.12;9.58;;;;;;;15.20;81.11;101189.91;3290404;84;22351;-75
2022/10/28 15:39:18;;;;;;;14.35;12.70;;;;;;;15.13;81.48;101172.41;3327717;84;21623;-75
2022/10/28 15:44:35;;;;;;;13.25;10.82;;;;;;;15.07;81.83;101169.73;3252668;84;22417;-75
2022/10/28 15:49:36;;;;;;;17.10;10.60;;;;;;;15.02;82.02;101166.21;3308054;84;21268;-75
2022/10/28 15:54:27;;;;;;;20.40;11.70;;;;;;;14.92;82.32;101143.48;3270250;85;21586;-75
2022/10/28 15:59:24;;;;;;;13.70;12.15;;;;;;;14.84;82.66;101145.63;3312449;83;20986;-75
2022/10/28 16:04:25;;;;;;;;;;;;;;;14.75;82.62;101144.67;3271631;83;21137;-75
2022/10/28 16:09:26;;;;;;;12.43;11.22;;;;;;;14.64;82.98;101138.05;3321525;83;20548;-77
2022/10/28 16:14:38;;;;;;;14.40;11.18;;;;;;;14.53;83.18;101135.77;3247905;84;22413;-75
2022/10/28 16:25:47;;;;;;;15.70;12.25;;;;;;;14.33;83.66;101111.64;3324620;83;21007;-75
2022/10/28 16:31:00;;;;;;;14.53;11.85;;;;;;;14.30;83.89;101116.84;3250509;85;21546;-75
2022/10/28 16:35:51;;;;;;;14.13;12.73;;;;;;;14.28;84.03;101126.41;3176398;85;20983;-75
2022/10/28 16:40:46;;;;;;;17.82;12.80;;;;;;;14.30;84.28;101127.30;3224654;85;21041;-74
2022/10/28 16:45:37;;;;;;;16.42;12.65;;;;;;;14.31;84.38;101119.91;3227352;86;21061;-74
2022/10/28 16:50:28;;;;;;;17.42;12.55;;;;;;;14.28;84.42;101114.64;3200261;86;21674;-74
2022/10/28 16:55:22;;;;;;;20.20;12.68;;;;;;;14.30;84.69;101110.30;3245172;86;22407;-74
2022/10/28 17:00:13;;;;;;;25.30;13.40;;;;;;;14.30;84.68;101116.84;3179085;86;21022;-74
2022/10/28 17:05:10;;;;;;;18.35;14.55;;;;;;;14.29;84.78;101120.34;3228126;86;40133;-74
2022/10/28 17:10:02;;;;;;;23.32;13.55;;;;;;;14.27;85.01;101116.80;3195165;85;21007;-75
2022/10/28 17:14:54;;;;;;;21.12;13.58;;;;;;;14.27;85.10;101115.50;3210439;86;21073;-74
2022/10/28 17:19:45;;;;;;;16.97;13.15;;;;;;;14.23;85.21;101112.42;3218142;86;20997;-75
2022/10/28 17:24:37;;;;;;;17.00;14.98;;;;;;;14.17;85.19;101112.38;3226958;83;21013;-74
2022/10/28 17:29:28;;;;;;;16.82;13.55;;;;;;;14.12;85.39;101116.25;3322120;83;22228;-74
2022/10/28 17:34:22;;;;;;;17.90;14.30;;;;;;;14.06;85.29;101122.75;3268797;83;20987;-74
2022/10/28 17:39:16;;;;;;;15.90;13.45;;;;;;;13.96;85.30;101131.36;3292452;83;22531;-75
2022/10/28 17:44:10;;;;;;;16.93;13.78;;;;;;;13.86;85.35;101129.06;3269843;83;21554;-76
2022/10/28 17:49:07;;;;;;;17.67;13.05;;;;;;;13.75;85.30;101129.40;3299238;83;22061;-75
2022/10/28 17:53:57;;;;;;;16.67;13.75;;;;;;;13.63;85.35;101132.74;3293351;83;21974;-75
2022/10/28 17:58:58;;;;;;;16.80;13.68;;;;;;;13.53;85.56;101130.03;3250140;83;21133;-74
2022/10/28 18:03:50;;;;;;;19.17;12.93;;;;;;;13.45;85.47;101132.10;3243233;83;21054;-75
2022/10/28 18:08:44;;;;;;;15.43;12.47;;;;;;;13.38;85.61;101123.75;3297324;83;21028;-75
2022/10/28 18:13:38;;;;;;;18.10;13.28;;;;;;;13.28;85.58;101121.00;3281981;83;20991;-75
2022/10/28 18:18:29;;;;;;;16.62;11.95;;;;;;;13.19;85.82;101132.64;3293363;84;22471;-75
2022/10/28 18:23:27;;;;;;;17.17;13.60;;;;;;;13.15;85.87;101127.80;3232528;83;21001;-75
2022/10/28 18:28:23;;;;;;;20.02;13.22;;;;;;;13.13;86.19;101106.03;3285214;84;21006;-75
2022/10/28 18:33:18;;;;;;;15.90;13.80;;;;;;;13.18;86.46;101086.52;3252086;83;21057;-75
2022/10/28 18:38:09;;;;;;;15.68;13.95;;;;;;;13.28;86.93;101087.05;3278157;83;21646;-75
2022/10/28 18:43:05;;;;;;;21.35;15.18;;;;;;;13.28;86.67;101073.99;3312194;83;21230;-74
2022/10/28 18:47:56;;;;;;;15.00;12.70;;;;;;;13.22;86.56;101073.94;3257903;84;21010;-74
2022/10/28 18:52:50;;;;;;;20.60;13.62;;;;;;;13.19;86.69;101080.86;3252073;83;21559;-74
2022/10/28 18:57:41;;;;;;;19.70;13.10;;;;;;;13.10;86.51;101079.01;3288044;84;20927;-74
2022/10/28 19:02:34;;;;;;;14.63;12.73;;;;;;;13.01;86.55;101081.51;3328387;83;21038;-74
2022/10/28 19:07:26;;;;;;;15.25;13.62;;;;;;;12.91;86.60;101070.95;3294908;83;22176;-74
2022/10/28 19:12:17;;;;;;;14.43;12.85;;;;;;;12.88;87.01;101080.04;3296271;83;21063;-74
2022/10/28 19:17:08;;;;;;;17.20;13.13;;;;;;;12.87;86.92;101089.15;3314902;83;20991;-74
2022/10/28 19:22:01;;;;;;;16.50;13.72;;;;;;;12.89;87.31;101070.03;3288940;83;21050;-74
2022/10/28 19:26:53;;;;;;;16.35;12.13;;;;;;;12.91;87.22;101069.65;3322748;83;21883;-74
2022/10/28 19:31:46;;;;;;;15.55;13.83;;;;;;;12.86;87.18;101059.58;3284789;84;21192;-74
2022/10/28 19:36:41;;;;;;;19.90;13.90;;;;;;;12.82;87.25;101064.28;3302468;83;21400;-73
2022/10/28 19:41:32;;;;;;;21.33;12.98;;;;;;;12.78;87.44;101052.06;3241379;84;20990;-74
2022/10/28 19:46:27;;;;;;;15.20;12.58;;;;;;;12.76;87.78;101058.56;3254816;84;21046;-74
2022/10/28 19:51:26;;;;;;;13.90;12.03;;;;;;;12.73;87.51;101081.13;3277718;83;20980;-74
2022/10/28 19:56:20;;;;;;;15.48;13.85;;;;;;;12.74;87.84;101077.67;3292005;83;21045;-74
2022/10/28 20:01:12;;;;;;;21.05;13.55;;;;;;;12.74;87.83;101090.72;3323864;83;20962;-73
2022/10/28 20:06:08;;;;;;;18.45;14.18;;;;;;;12.76;87.67;101082.48;3286133;84;21099;-74
2022/10/28 20:11:09;;;;;;;16.87;13.32;;;;;;;12.74;87.74;101080.28;3285657;83;21081;-74
2022/10/28 20:16:04;;;;;;;15.70;12.40;;;;;;;12.70;87.64;101082.41;3283098;84;22051;-74
2022/10/28 20:21:06;;;;;;;15.75;11.83;;;;;;;12.63;87.06;101087.09;3286183;83;22102;-74
2022/10/28 20:25:59;;;;;;;15.83;12.95;;;;;;;12.58;87.29;101086.57;3305765;83;21005;-74
2022/10/28 20:31:10;;;;;;;14.38;12.45;;;;;;;12.57;87.75;101077.02;3297426;83;21038;-74
2022/10/28 20:36:07;;;;;;;15.98;12.47;;;;;;;12.54;87.51;101076.95;3310574;83;21163;-74
2022/10/28 20:41:00;;;;;;;15.13;12.82;;;;;;;12.46;87.55;101086.39;3303303;83;21044;-74
2022/10/28 20:46:05;;;;;;;14.85;12.60;;;;;;;12.42;87.78;101087.64;3289131;83;21844;-74
2022/10/28 20:51:02;;;;;;;14.05;12.37;;;;;;;12.38;87.75;101097.14;3267018;83;21029;-74
2022/10/28 20:56:09;;;;;;;14.78;12.73;;;;;;;12.38;87.89;101101.05;3294576;83;21060;-74
2022/10/28 21:01:11;;;;;;;18.07;14.73;;;;;;;12.36;87.57;101117.11;3306636;83;21027;-74
2022/10/28 21:06:09;;;;;;;14.87;13.15;;;;;;;12.33;87.89;101108.80;3284006;83;21994;-74
2022/10/28 21:11:09;;;;;;;20.30;14.00;;;;;;;12.37;87.95;101122.31;3337532;83;20978;-74
2022/10/28 21:16:10;;;;;;;17.98;12.73;;;;;;;12.41;88.32;101084.13;3284526;83;21575;-75
2022/10/28 21:21:06;;;;;;;18.92;12.47;;;;;;;12.48;88.70;101063.81;3276208;83;21316;-74
2022/10/28 21:26:02;;;;;;;13.80;11.50;;;;;;;12.53;88.82;101055.62;3250913;83;21040;-74
2022/10/28 21:31:04;;;;;;;15.95;13.35;;;;;;;12.53;88.67;101039.98;3279154;83;20984;-74
2022/10/28 21:36:08;;;;;;;17.23;12.45;;;;;;;12.51;89.09;101035.17;3313120;84;21545;-74
2022/10/28 21:41:20;;;;;;;13.80;12.05;;;;;;;12.43;88.64;101024.18;3296508;83;21070;-74
2022/10/28 21:46:32;;;;;;;14.83;12.20;;;;;;;12.35;88.81;101035.81;3319327;83;21466;-74
2022/10/28 21:51:17;;;;;;;17.45;12.68;;;;;;;12.25;88.78;101037.83;3285990;84;20990;-74
2022/10/28 21:56:17;;;;;;;15.60;13.05;;;;;;;12.18;88.97;101027.32;3289332;84;21118;-74
2022/10/28 22:01:25;;;;;;;14.18;12.58;;;;;;;12.13;88.98;101019.84;3308184;83;21027;-73
2022/10/28 22:06:25;;;;;;;13.60;11.85;;;;;;;12.08;88.88;101007.61;3280443;84;21035;-74
2022/10/28 22:11:27;;;;;;;14.43;12.88;;;;;;;11.98;88.80;101005.27;3309485;83;21456;-74
2022/10/28 22:16:40;;;;;;;16.15;12.37;;;;;;;11.90;88.93;100993.83;3305767;84;21054;-74
2022/10/28 22:21:52;;;;;;;14.43;12.95;;;;;;;11.82;88.73;101005.00;3261340;84;21619;-74
2022/10/28 22:27:01;;;;;;;15.32;12.43;;;;;;;11.75;88.78;101001.84;3205800;86;21671;-74
2022/10/28 22:32:14;;;;;;;14.10;11.78;;;;;;;11.70;88.93;101003.49;3206151;86;21028;-74
2022/10/28 22:37:20;;;;;;;14.30;11.15;;;;;;;11.63;88.72;100993.39;3215711;86;27019;-74
2022/10/28 22:42:27;;;;;;;13.38;11.93;;;;;;;11.59;88.78;100988.12;3187850;85;21122;-74
2022/10/28 22:47:28;;;;;;;15.10;12.07;;;;;;;11.52;88.76;100991.03;3220085;85;21041;-74
2022/10/28 22:52:22;;;;;;;15.40;11.95;;;;;;;11.50;89.05;100991.44;3226444;86;21023;-74
2022/10/28 22:57:30;;;;;;;;;;;;;;;;;;;;;
2022/10/28 23:02:29;;;;;;;16.93;12.88;;;;;;;11.44;89.27;100993.48;3211029;86;21441;-73
2022/10/28 23:08:05;;;;;;;;;;;;;;;;;;;;;
2022/10/28 23:13:15;;;;;;;17.02;12.63;;;;;;;11.45;89.42;100986.13;3236703;85;21040;-74
2022/10/28 23:18:02;;;;;;;14.98;13.38;;;;;;;11.51;90.10;100975.38;3203206;86;21712;-74
2022/10/28 23:22:57;;;;;;;18.55;13.75;;;;;;;11.59;90.41;100972.06;3291262;85;20986;-75
2022/10/28 23:27:49;;;;;;;15.43;12.40;;;;;;;11.63;90.05;100969.08;3276922;83;21074;-75
2022/10/28 23:32:42;;;;;;;17.57;11.97;;;;;;;11.64;90.05;100958.69;3293593;84;21101;-75
2022/10/28 23:37:36;;;;;;;15.72;11.68;;;;;;;11.64;89.89;100955.19;3300726;84;20995;-74
2022/10/28 23:42:29;;;;;;;16.73;12.45;;;;;;;11.65;90.05;100949.14;3331573;84;21493;-75
2022/10/28 23:47:22;;;;;;;15.20;11.93;;;;;;;11.69;90.25;100945.73;3253013;84;21030;-74
2022/10/28 23:52:13;;;;;;;16.02;13.00;;;;;;;11.72;90.27;100945.78;3284181;83;21046;-74
2022/10/28 23:57:07;;;;;;;18.77;14.13;;;;;;;11.76;90.56;100938.89;3226489;85;21030;-74
